»·PEaware :: SWA291 KSNA-KPHX

SWA291 :: KSNA-KPHX

FLIGHT INFORMATION

Flight Status: Arrived
Operator:
Southwest Airlines
More flights by this operator :: More flights under this callsign
Pilot: Paul A. (20189)
Aircraft: BOEING 737-700
(B737)
More flights by this aircraft type
Origin: KSNA John Wayne-Orange Co
United States
Destination: KPHX Phoenix Sky Harbor Intl
United States
More flights between these airports :: More routes between these airports
Route: PIGGN2 CNERY BLH HYDRR1
File this flight plan on PilotEdge
Remarks:
Altitude:
(Current/Filed)
29,000ft
Speed:
(Current/Filed)
455kts
Departed: 12-Nov-18 08:17 AM
Arrived: 12-Nov-18 09:10 AM
Distance/Time
Traveled:
294nm/0:53
Distance/Time
To Go:
Arrived

Flight Plot

Page will automatically refresh every two minutes.

Flight plan parsing failed; only flown route is shown


Map Options




Map Legend


Flown Route
Filed Route
Departure Airport
Arrival Airport
Navaid (VOR, NDB)
Fix

Horizontal Profiles

Position Reports

Time Latitude Longitude Heading Altitude Ground
Speed
12-Nov-18 07:57 33.680881 -117.861254 116 63ft 0kts
12-Nov-18 07:58 33.680881 -117.861254 116 63ft 0kts
12-Nov-18 07:59 33.680881 -117.861254 116 63ft 0kts
12-Nov-18 08:00 33.680881 -117.861254 116 63ft 0kts
12-Nov-18 08:01 33.680881 -117.861254 116 63ft 0kts
12-Nov-18 08:02 33.680881 -117.861254 116 63ft 0kts
12-Nov-18 08:03 33.680881 -117.861254 116 63ft 0kts
12-Nov-18 08:04 33.680881 -117.861254 116 63ft 0kts
12-Nov-18 08:05 33.680881 -117.861254 116 63ft 0kts
12-Nov-18 08:06 33.680881 -117.861254 116 63ft 0kts
12-Nov-18 08:07 33.680881 -117.861254 116 63ft 0kts
12-Nov-18 08:08 33.680881 -117.861254 116 63ft 0kts
12-Nov-18 08:09 33.680881 -117.861254 116 63ft 0kts
12-Nov-18 08:10 33.680881 -117.861254 116 63ft 0kts
12-Nov-18 08:11 33.680881 -117.861254 116 63ft 0kts
12-Nov-18 08:12 33.680881 -117.861254 116 63ft 0kts
12-Nov-18 08:13 33.680881 -117.861254 116 63ft 0kts
12-Nov-18 08:14 33.681076 -117.861878 87 63ft 2kts
12-Nov-18 08:15 33.680670 -117.862483 27 63ft 2kts
12-Nov-18 08:16 33.680465 -117.862608 27 63ft 0kts
12-Nov-18 08:17 33.680465 -117.862608 27 63ft 0kts
12-Nov-18 08:18 33.680834 -117.863605 298 63ft 3kts
12-Nov-18 08:19 33.681079 -117.864153 297 63ft 0kts
12-Nov-18 08:20 33.668873 -117.873173 207 98ft 157kts
12-Nov-18 08:21 33.625226 -117.890793 187 2775ft 184kts
12-Nov-18 08:22 33.563678 -117.893887 161 4624ft 262kts
12-Nov-18 08:23 33.502639 -117.842816 118 8159ft 279kts
12-Nov-18 08:24 33.477109 -117.752868 86 11264ft 305kts
12-Nov-18 08:25 33.503763 -117.646709 56 13304ft 355kts
12-Nov-18 08:26 33.555405 -117.542172 57 16628ft 373kts
12-Nov-18 08:27 33.562304 -117.416412 103 19535ft 416kts
12-Nov-18 08:28 33.520403 -117.282550 105 22069ft 438kts
12-Nov-18 08:29 33.502251 -117.139298 84 24320ft 439kts
12-Nov-18 08:30 33.499990 -116.991315 84 26500ft 449kts
12-Nov-18 08:31 33.497298 -116.840078 83 28321ft 458kts
12-Nov-18 08:32 33.495826 -116.687840 83 29385ft 455kts
12-Nov-18 08:33 33.493792 -116.537143 83 29402ft 452kts
12-Nov-18 08:34 33.491743 -116.386388 83 29421ft 453kts
12-Nov-18 08:35 33.489520 -116.235364 83 29421ft 453kts
12-Nov-18 08:36 33.487095 -116.084386 81 29418ft 451kts
12-Nov-18 08:37 33.512911 -115.941811 62 29418ft 432kts
12-Nov-18 08:38 33.552934 -115.806250 63 29418ft 432kts
12-Nov-18 08:39 33.592440 -115.669918 63 29414ft 432kts
12-Nov-18 08:40 33.616203 -115.526570 81 29423ft 452kts
12-Nov-18 08:41 33.612708 -115.375020 84 29425ft 454kts
12-Nov-18 08:42 33.608589 -115.223537 84 29429ft 455kts
12-Nov-18 08:43 33.604978 -115.071805 84 29430ft 454kts
12-Nov-18 08:44 33.600797 -114.920044 84 29435ft 456kts
12-Nov-18 08:45 33.595384 -114.768502 88 29438ft 460kts
12-Nov-18 08:46 33.568192 -114.616672 96 29439ft 467kts
12-Nov-18 08:47 33.538127 -114.464722 95 29434ft 467kts
12-Nov-18 08:48 33.508805 -114.313511 95 29083ft 461kts
12-Nov-18 08:49 33.479476 -114.165802 96 26430ft 449kts
12-Nov-18 08:50 33.451319 -114.024724 96 25043ft 425kts
12-Nov-18 08:51 33.423723 -113.887584 96 23800ft 422kts
12-Nov-18 08:52 33.396627 -113.752038 97 22394ft 414kts
12-Nov-18 08:53 33.369736 -113.619548 97 21026ft 406kts
12-Nov-18 08:54 33.343149 -113.489618 98 19683ft 399kts
12-Nov-18 08:55 33.320189 -113.362026 95 18217ft 387kts
12-Nov-18 08:56 33.298532 -113.236908 96 16733ft 380kts
12-Nov-18 08:57 33.280664 -113.113996 93 15476ft 372kts
12-Nov-18 08:58 33.275683 -112.997206 80 14182ft 339kts
12-Nov-18 08:59 33.278954 -112.886232 81 12884ft 330kts
12-Nov-18 09:00 33.293689 -112.785560 59 11676ft 287kts
12-Nov-18 09:01 33.325023 -112.702843 59 10629ft 262kts
12-Nov-18 09:02 33.354382 -112.625933 60 9595ft 246kts
12-Nov-18 09:03 33.381096 -112.555755 61 8740ft 221kts
12-Nov-18 09:04 33.406089 -112.489093 63 7837ft 218kts
12-Nov-18 09:05 33.427515 -112.421603 77 6935ft 219kts
12-Nov-18 09:06 33.429048 -112.348942 85 5912ft 216kts
12-Nov-18 09:07 33.429006 -112.278737 85 5024ft 197kts
12-Nov-18 09:08 33.428972 -112.218014 85 4202ft 171kts
12-Nov-18 09:09 33.428937 -112.164343 85 3356ft 160kts
12-Nov-18 09:10 33.428906 -112.112195 85 2526ft 146kts
12-Nov-18 09:11 33.428762 -112.066706 86 1780ft 129kts
12-Nov-18 09:12 33.428796 -112.024368 88 1159ft 125kts
12-Nov-18 09:13 33.429638 -112.010521 51 1143ft 0kts
12-Nov-18 09:14 33.431112 -112.008985 353 1143ft 14kts
12-Nov-18 09:15 33.431994 -112.008425 66 1143ft 16kts
12-Nov-18 09:16 33.432844 -112.001965 89 1143ft 34kts
12-Nov-18 09:17 33.433660 -111.996064 305 1142ft 1kts

Navigation Log

Ident Type
Flight plan parsing failed, navigation log unavailable